createdAt,value
2019-03-09T00:00:08.030Z,83.30
2019-03-09T00:02:36.615Z,107.20
2019-03-09T00:05:05.695Z,102.70
2019-03-09T00:07:34.233Z,95.07
2019-03-09T00:10:02.806Z,134.87
2019-03-09T00:12:31.366Z,98.20
2019-03-09T00:14:59.727Z,91.87
2019-03-09T00:17:28.294Z,98.50
2019-03-09T00:19:57.551Z,91.27
2019-03-09T00:22:26.150Z,100.67
2019-03-09T00:24:56.306Z,95.80
2019-03-09T00:27:29.779Z,120.50
2019-03-09T00:30:07.210Z,92.33
2019-03-09T00:32:35.406Z,114.80
2019-03-09T00:35:04.140Z,94.30
2019-03-09T00:37:32.741Z,83.70
2019-03-09T00:40:01.728Z,81.17
2019-03-09T00:42:30.297Z,89.43
2019-03-09T00:44:58.915Z,112.00
2019-03-09T00:47:27.181Z,81.33
2019-03-09T00:49:55.685Z,104.77
2019-03-09T00:52:24.298Z,89.43
2019-03-09T00:54:52.614Z,101.63
2019-03-09T00:57:21.597Z,85.23
2019-03-09T00:59:56.662Z,87.77
2019-03-09T01:02:25.232Z,95.03
2019-03-09T01:04:53.727Z,95.40
2019-03-09T01:07:22.396Z,85.90
2019-03-09T01:09:50.958Z,94.00
2019-03-09T01:12:19.527Z,96.63
2019-03-09T01:14:47.883Z,104.07
2019-03-09T01:17:16.522Z,111.20
2019-03-09T01:19:45.098Z,90.90
2019-03-09T01:22:13.398Z,90.43
2019-03-09T01:24:41.966Z,101.53
2019-03-09T01:27:10.542Z,121.00
2019-03-09T01:29:39.166Z,100.17
2019-03-09T01:32:07.654Z,98.30
2019-03-09T01:34:36.289Z,87.23
2019-03-09T01:37:04.824Z,118.10
2019-03-09T01:39:33.399Z,111.97
2019-03-09T01:42:01.654Z,111.63
2019-03-09T01:44:30.195Z,114.70
2019-03-09T01:46:58.697Z,90.70
2019-03-09T01:49:27.022Z,102.53
2019-03-09T01:51:55.572Z,121.30
2019-03-09T01:54:24.067Z,99.03
2019-03-09T01:56:52.711Z,108.93
2019-03-09T01:59:21.669Z,108.83
2019-03-09T02:01:51.151Z,106.23
2019-03-09T02:04:19.409Z,97.13
2019-03-09T02:06:48.005Z,91.90
2019-03-09T02:09:16.502Z,103.60
2019-03-09T02:11:45.004Z,112.37
2019-03-09T02:14:13.540Z,107.83
2019-03-09T02:16:42.117Z,106.73
2019-03-09T02:19:10.379Z,95.50
2019-03-09T02:21:39.032Z,93.27
2019-03-09T02:24:07.613Z,108.80
2019-03-09T02:26:36.118Z,127.73
2019-03-09T02:29:04.722Z,99.27
2019-03-09T02:31:33.057Z,121.33
2019-03-09T02:34:01.556Z,103.33
2019-03-09T02:36:29.860Z,143.10
2019-03-09T02:39:02.799Z,124.63
2019-03-09T02:41:31.364Z,85.53
2019-03-09T02:43:59.978Z,105.60
2019-03-09T02:46:28.476Z,104.50
2019-03-09T02:48:56.980Z,101.47
2019-03-09T02:51:25.889Z,115.27
2019-03-09T02:53:54.448Z,91.20
2019-03-09T02:56:22.947Z,99.60
2019-03-09T02:58:51.491Z,123.53
2019-03-09T03:01:39.435Z,126.47
2019-03-09T03:04:07.995Z,102.47
2019-03-09T03:06:36.259Z,94.57
2019-03-09T03:09:05.509Z,114.50
2019-03-09T03:11:34.054Z,107.73
2019-03-09T03:14:02.696Z,118.30
2019-03-09T03:16:31.535Z,124.00
2019-03-09T03:19:00.073Z,105.00
2019-03-09T03:21:28.639Z,103.20
2019-03-09T03:23:57.288Z,102.93
2019-03-09T03:26:25.892Z,98.37
2019-03-09T03:28:54.147Z,97.40
2019-03-09T03:31:22.652Z,91.60
2019-03-09T03:33:51.338Z,95.57
2019-03-09T03:36:19.909Z,87.63
2019-03-09T03:38:48.461Z,91.27
2019-03-09T03:41:17.023Z,96.77
2019-03-09T03:43:45.679Z,101.03
2019-03-09T03:46:14.242Z,97.27
2019-03-09T03:48:42.775Z,95.73
2019-03-09T03:51:11.347Z,95.03
2019-03-09T03:53:39.922Z,90.50
2019-03-09T03:56:08.534Z,119.03
2019-03-09T03:58:37.110Z,103.23
2019-03-09T04:01:06.007Z,87.27
2019-03-09T04:03:34.619Z,106.57
2019-03-09T04:06:04.052Z,104.50
2019-03-09T04:08:32.552Z,96.60
2019-03-09T04:11:01.166Z,105.73
2019-03-09T04:13:29.347Z,130.77
2019-03-09T04:15:57.925Z,91.77
2019-03-09T04:18:26.542Z,96.80
2019-03-09T04:20:55.055Z,103.37
2019-03-09T04:23:23.699Z,109.10
2019-03-09T04:25:52.393Z,99.27
2019-03-09T04:28:20.884Z,110.87
2019-03-09T04:30:49.534Z,133.17
2019-03-09T04:33:18.203Z,96.90
2019-03-09T04:35:46.698Z,92.80
2019-03-09T04:38:15.698Z,80.90
2019-03-09T04:40:44.414Z,85.77
2019-03-09T04:43:13.005Z,92.27
2019-03-09T04:45:41.574Z,91.40
2019-03-09T04:48:10.117Z,110.50
2019-03-09T04:50:38.691Z,100.20
2019-03-09T04:53:07.331Z,95.07
2019-03-09T04:55:35.931Z,91.53
2019-03-09T04:58:04.429Z,84.87
2019-03-09T05:00:32.996Z,88.53
2019-03-09T05:03:01.593Z,89.50
2019-03-09T05:05:30.159Z,90.30
2019-03-09T05:08:02.395Z,94.27
2019-03-09T05:10:34.133Z,84.33
2019-03-09T05:13:12.051Z,83.27
2019-03-09T05:15:40.663Z,111.13
2019-03-09T05:18:09.226Z,108.10
2019-03-09T05:20:38.803Z,90.90
2019-03-09T05:23:07.418Z,94.13
2019-03-09T05:25:35.922Z,114.10
2019-03-09T05:28:04.491Z,99.63
2019-03-09T05:30:46.063Z,99.47
2019-03-09T05:33:15.010Z,90.50
2019-03-09T05:35:43.593Z,102.43
2019-03-09T05:38:12.206Z,93.30
2019-03-09T05:40:40.753Z,107.33
2019-03-09T05:43:09.322Z,105.73
2019-03-09T05:45:37.867Z,107.07
2019-03-09T05:48:06.431Z,97.57
2019-03-09T05:50:34.999Z,117.80
2019-03-09T05:53:16.581Z,118.20
2019-03-09T05:55:45.140Z,97.80
2019-03-09T05:58:13.650Z,113.40
2019-03-09T06:00:43.033Z,94.67
2019-03-09T06:03:11.532Z,109.43
2019-03-09T06:05:45.019Z,99.70
2019-03-09T06:08:13.380Z,101.47
2019-03-09T06:10:42.023Z,97.67
2019-03-09T06:13:10.583Z,110.00
2019-03-09T06:15:39.262Z,94.77
2019-03-09T06:18:07.519Z,95.93
2019-03-09T06:20:36.008Z,97.47
2019-03-09T06:23:04.613Z,99.03
2019-03-09T06:25:32.937Z,98.10
2019-03-09T06:28:01.604Z,107.10
2019-03-09T06:30:30.194Z,94.03
2019-03-09T06:33:18.095Z,88.33
2019-03-09T06:35:48.983Z,83.90
2019-03-09T06:38:26.166Z,83.63
2019-03-09T06:41:02.702Z,83.43
2019-03-09T06:43:24.941Z,83.20
2019-03-09T06:45:53.450Z,83.63
2019-03-09T06:48:21.748Z,84.17
2019-03-09T06:50:50.311Z,83.03
2019-03-09T06:53:18.956Z,85.70
2019-03-09T06:55:47.258Z,85.37
2019-03-09T06:58:15.582Z,85.77
2019-03-09T07:00:44.561Z,82.80
2019-03-09T07:03:13.179Z,87.27
2019-03-09T07:05:41.744Z,84.93
2019-03-09T07:08:10.390Z,87.00
2019-03-09T07:10:38.922Z,95.00
2019-03-09T07:13:07.481Z,86.37
2019-03-09T07:15:38.239Z,85.47
2019-03-09T07:18:07.529Z,85.93
2019-03-09T07:20:37.699Z,85.53
2019-03-09T07:23:06.251Z,85.93
2019-03-09T07:25:34.782Z,83.80
2019-03-09T07:28:05.251Z,84.23
2019-03-09T07:30:33.508Z,85.57
2019-03-09T07:33:02.205Z,85.53
2019-03-09T07:35:30.446Z,87.60
2019-03-09T07:37:58.783Z,86.20
2019-03-09T07:40:27.446Z,85.23
2019-03-09T07:42:56.087Z,87.67
2019-03-09T07:45:24.659Z,88.63
2019-03-09T07:47:53.202Z,84.87
2019-03-09T07:50:23.398Z,86.87
2019-03-09T07:52:51.574Z,87.10
2019-03-09T07:55:20.679Z,86.40
2019-03-09T07:57:49.340Z,86.07
2019-03-09T08:00:21.604Z,90.50
2019-03-09T08:02:50.195Z,87.70
2019-03-09T08:05:18.711Z,86.27
2019-03-09T08:07:47.292Z,85.90
2019-03-09T08:10:22.691Z,85.53
2019-03-09T08:12:51.253Z,86.37
2019-03-09T08:15:20.191Z,87.53
2019-03-09T08:17:48.737Z,8.80
2019-03-09T08:20:18.577Z,5.67
2019-03-09T08:22:47.223Z,7.57
2019-03-09T08:25:44.347Z,67.37
2019-03-09T08:28:13.038Z,44.37
2019-03-09T08:30:41.675Z,13.43
2019-03-09T08:33:11.288Z,11.77
2019-03-09T08:35:39.938Z,7.53
2019-03-09T08:38:08.448Z,7.30
2019-03-09T08:40:37.137Z,6.97
2019-03-09T08:43:05.765Z,6.83
2019-03-09T08:45:34.784Z,7.67
2019-03-09T08:48:03.384Z,6.90
2019-03-09T08:50:31.955Z,5.80
2019-03-09T08:53:00.555Z,6.73
2019-03-09T08:55:29.161Z,8.70
2019-03-09T08:57:57.821Z,6.53
2019-03-09T09:00:31.342Z,8.10
2019-03-09T09:03:00.133Z,6.50
2019-03-09T09:05:28.888Z,6.70
2019-03-09T09:07:57.543Z,5.83
2019-03-09T09:10:26.209Z,7.30
2019-03-09T09:12:54.902Z,5.47
2019-03-09T09:15:23.644Z,7.73
2019-03-09T09:17:52.683Z,7.03
2019-03-09T09:20:23.583Z,8.33
2019-03-09T09:22:53.725Z,6.70
2019-03-09T09:25:22.405Z,6.63
2019-03-09T09:27:52.017Z,4.67
2019-03-09T09:30:23.743Z,5.30
2019-03-09T09:32:52.408Z,5.17
2019-03-09T09:35:21.045Z,5.17
2019-03-09T09:37:49.319Z,77.60
2019-03-09T09:40:19.275Z,99.33
2019-03-09T09:42:47.520Z,82.97
2019-03-09T09:45:15.858Z,85.17
2019-03-09T09:47:44.167Z,83.90
2019-03-09T09:50:15.835Z,83.27
2019-03-09T09:52:44.471Z,85.33
2019-03-09T09:55:15.635Z,82.03
2019-03-09T09:57:44.198Z,82.87
2019-03-09T10:00:14.030Z,83.40
2019-03-09T10:02:42.684Z,85.33
2019-03-09T10:05:11.710Z,81.07
2019-03-09T10:07:39.975Z,82.77
2019-03-09T10:10:09.865Z,77.05
2019-03-09T10:12:38.198Z,74.53
2019-03-09T10:15:13.756Z,74.00
2019-03-09T10:17:42.013Z,74.77
2019-03-09T10:20:10.885Z,74.92
2019-03-09T10:22:39.209Z,74.35
2019-03-09T10:25:08.584Z,73.25
2019-03-09T10:27:36.779Z,73.60
2019-03-09T10:30:06.648Z,75.05
2019-03-09T10:32:35.008Z,73.72
2019-03-09T10:35:03.344Z,72.20
2019-03-09T10:37:31.997Z,76.25
2019-03-09T10:40:00.328Z,74.25
2019-03-09T10:42:28.630Z,74.92
2019-03-09T10:44:56.930Z,72.25
2019-03-09T10:47:25.260Z,55.88
2019-03-09T10:49:53.607Z,75.70
2019-03-09T10:52:21.914Z,76.92
2019-03-09T10:54:50.277Z,76.90
2019-03-09T10:57:18.603Z,72.65
2019-03-09T10:59:47.047Z,72.30
2019-03-09T11:02:15.311Z,76.05
2019-03-09T11:04:43.582Z,75.00
2019-03-09T11:07:11.887Z,73.52
2019-03-09T11:12:05.538Z,77.97
2019-03-09T11:14:34.139Z,82.17
2019-03-09T11:19:58.507Z,76.03
2019-03-09T11:22:27.424Z,76.33
2019-03-09T11:25:03.071Z,74.47
2019-03-09T11:27:26.183Z,74.20
2019-03-09T11:29:54.821Z,76.50
2019-03-09T11:32:23.469Z,76.07
2019-03-09T11:34:52.001Z,77.03
2019-03-09T11:37:20.641Z,81.67
2019-03-09T11:39:49.019Z,77.50
2019-03-09T11:42:17.618Z,77.37
2019-03-09T11:44:46.181Z,85.50
2019-03-09T11:47:14.757Z,76.73
2019-03-09T11:49:43.354Z,76.73
2019-03-09T11:52:19.661Z,78.47
2019-03-09T11:54:41.819Z,75.60
2019-03-09T11:57:10.288Z,107.80
2019-03-09T11:59:38.862Z,76.80
2019-03-09T12:02:07.549Z,112.03
2019-03-09T12:04:46.291Z,98.20
2019-03-09T12:07:06.513Z,91.97
2019-03-09T12:09:34.777Z,91.57
2019-03-09T12:12:03.666Z,85.07
2019-03-09T12:14:32.520Z,87.13
2019-03-09T12:17:01.512Z,80.97
2019-03-09T12:19:30.140Z,80.53
2019-03-09T12:21:58.406Z,79.40
2019-03-09T12:24:28.845Z,78.70
2019-03-09T12:26:57.357Z,78.53
2019-03-09T12:29:27.010Z,79.20
2019-03-09T12:31:55.552Z,80.23
2019-03-09T12:34:24.159Z,76.67
2019-03-09T12:36:52.667Z,77.80
2019-03-09T12:39:20.873Z,78.27
2019-03-09T12:41:49.546Z,81.70
2019-03-09T12:44:18.123Z,77.80
2019-03-09T12:46:46.696Z,78.63
2019-03-09T12:49:15.334Z,78.43
2019-03-09T12:51:43.588Z,85.93
2019-03-09T12:54:12.086Z,79.57
2019-03-09T12:56:40.690Z,79.60
2019-03-09T12:59:09.339Z,79.90
2019-03-09T13:01:38.093Z,110.67
2019-03-09T13:04:10.606Z,79.00
2019-03-09T13:06:39.229Z,78.50
2019-03-09T13:09:07.560Z,78.20
2019-03-09T13:11:36.080Z,93.63
2019-03-09T13:14:04.804Z,79.73
2019-03-09T13:16:33.043Z,78.03
2019-03-09T13:19:01.657Z,82.10
2019-03-09T13:21:31.195Z,81.27
2019-03-09T13:23:59.892Z,81.17
2019-03-09T13:26:28.501Z,81.80
2019-03-09T13:28:57.181Z,82.37
2019-03-09T13:31:25.786Z,79.53
2019-03-09T13:33:54.376Z,81.77
2019-03-09T13:36:22.706Z,80.13
2019-03-09T13:38:51.285Z,79.53
2019-03-09T13:41:19.966Z,78.57
2019-03-09T13:43:48.623Z,79.93
2019-03-09T13:46:17.268Z,78.80
2019-03-09T13:48:45.945Z,81.57
2019-03-09T13:51:14.508Z,82.03
2019-03-09T13:53:43.156Z,81.30
2019-03-09T13:56:11.842Z,81.13
2019-03-09T13:58:40.177Z,81.50
2019-03-09T14:01:08.430Z,80.70
2019-03-09T14:03:37.049Z,80.87
2019-03-09T14:06:05.706Z,80.47
2019-03-09T14:08:34.298Z,78.53
2019-03-09T14:11:02.893Z,80.40
2019-03-09T14:13:31.545Z,81.60
2019-03-09T14:15:59.799Z,80.93
2019-03-09T14:18:28.113Z,80.57
2019-03-09T14:20:56.432Z,80.77
2019-03-09T14:23:25.604Z,80.93
2019-03-09T14:25:53.968Z,80.30
2019-03-09T14:28:22.246Z,81.07
2019-03-09T14:30:50.886Z,80.57
2019-03-09T14:33:20.694Z,80.87
2019-03-09T14:35:49.426Z,81.30
2019-03-09T14:38:17.935Z,80.33
2019-03-09T14:40:46.533Z,79.97
2019-03-09T14:43:14.892Z,82.67
2019-03-09T14:45:43.388Z,80.07
2019-03-09T14:48:11.996Z,78.10
2019-03-09T14:50:40.575Z,78.00
